Time;durP1;ratioP1;P1;durP2;ratioP2;P2;SDS_P1;SDS_P2;PMS_P1;PMS_P2;Temp;Humidity;BMP_temperature;BMP_pressure;BME280_temperature;BME280_humidity;BME280_pressure;Samples;Min_cycle;Max_cycle;Signal;HPM_P1;HPM_P2
2023/09/04 00:00:27;;;;;;;;;16.33;12.67;;;;;22.89;100.00;102191.13;5123368;27;45370;-78
2023/09/04 00:02:52;;;;;;;;;13.00;12.00;;;;;22.71;100.00;102165.56;5120456;27;45274;-77
2023/09/04 00:05:20;;;;;;;;;14.67;13.33;;;;;22.82;100.00;102189.88;5113122;27;45358;-77
2023/09/04 00:07:45;;;;;;;;;15.67;14.33;;;;;22.70;100.00;102175.50;5104517;27;45445;-77
2023/09/04 00:10:11;;;;;;;;;12.00;12.00;;;;;22.76;100.00;102191.22;5103030;27;45602;-78
2023/09/04 00:12:36;;;;;;;;;13.00;13.00;;;;;22.63;100.00;102187.72;5104839;27;45486;-77
2023/09/04 00:15:03;;;;;;;;;14.00;13.33;;;;;22.66;100.00;102195.59;5120233;27;45512;-77
2023/09/04 00:17:30;;;;;;;;;14.33;12.00;;;;;22.58;100.00;102189.88;5106530;27;45363;-77
2023/09/04 00:19:55;;;;;;;;;16.33;15.33;;;;;22.52;100.00;102181.38;5110028;27;46226;-77
2023/09/04 00:22:20;;;;;;;;;14.00;14.00;;;;;22.52;100.00;102176.00;5120335;27;45568;-77
2023/09/04 00:24:46;;;;;;;;;15.00;13.67;;;;;22.52;100.00;102176.84;5120044;27;45374;-77
2023/09/04 00:27:11;;;;;;;;;6.33;6.00;;;;;22.54;100.00;102176.75;5119635;27;45350;-77
2023/09/04 00:29:36;;;;;;;;;16.67;13.00;;;;;22.55;100.00;102175.75;5109449;27;57146;-78
2023/09/04 00:32:02;;;;;;;;;13.00;13.00;;;;;22.54;100.00;102172.22;5107543;27;47037;-77
2023/09/04 00:34:28;;;;;;;;;16.33;13.33;;;;;22.58;100.00;102176.38;5112559;27;45369;-77
2023/09/04 00:36:53;;;;;;;;;14.33;13.00;;;;;22.53;100.00;102166.94;5115017;27;45361;-77
2023/09/04 00:39:19;;;;;;;;;13.67;13.00;;;;;22.47;100.00;102151.22;5121323;27;46653;-77
2023/09/04 00:41:45;;;;;;;;;13.67;13.33;;;;;22.52;100.00;102159.81;5106666;27;48097;-78
2023/09/04 00:44:10;;;;;;;;;12.67;12.67;;;;;22.47;100.00;102160.19;5106851;27;45220;-77
2023/09/04 00:46:36;;;;;;;;;9.67;8.33;;;;;22.37;100.00;102145.66;5113861;27;45439;-77
2023/09/04 00:49:02;;;;;;;;;15.00;13.00;;;;;22.38;100.00;102142.00;5120127;27;45924;-77
2023/09/04 00:51:27;;;;;;;;;13.00;10.00;;;;;22.46;100.00;102162.97;5109214;27;45714;-77
2023/09/04 00:53:53;;;;;;;;;14.33;14.00;;;;;22.29;100.00;102140.84;5118334;27;45436;-77
2023/09/04 00:56:19;;;;;;;;;10.33;8.67;;;;;22.37;100.00;102158.28;5104208;27;45378;-77
2023/09/04 00:58:45;;;;;;;;;14.33;12.33;;;;;22.37;100.00;102163.69;5104229;27;45518;-77
2023/09/04 01:01:10;;;;;;;;;17.00;16.00;;;;;22.30;100.00;102155.19;5111411;27;45358;-77
2023/09/04 01:03:36;;;;;;;;;18.00;16.67;;;;;22.26;100.00;102153.69;5103941;27;45401;-77
2023/09/04 01:06:02;;;;;;;;;56.25;45.00;;;;;22.29;100.00;102165.09;5112159;27;45371;-78
2023/09/04 01:08:27;;;;;;;;;82.50;75.50;;;;;22.28;100.00;102165.22;5117882;27;45453;-78
2023/09/04 01:11:29;;;;;;;;;112.00;100.25;;;;;22.24;100.00;102152.97;5103785;27;45263;-77
2023/09/04 01:13:56;;;;;;;;;145.00;124.00;;;;;22.17;100.00;102146.28;5101930;27;45568;-77
2023/09/04 01:16:23;;;;;;;;;127.75;116.50;;;;;22.15;100.00;102164.44;5104363;27;45547;-78
2023/09/04 01:18:49;;;;;;;;;127.75;103.75;;;;;22.07;100.00;102146.13;5108542;27;45435;-77
2023/09/04 01:21:14;;;;;;;;;102.00;85.25;;;;;22.11;100.00;102162.94;5098816;27;45440;-77
2023/09/04 01:23:40;;;;;;;;;97.00;83.00;;;;;22.08;100.00;102158.63;5114036;27;45373;-77
2023/09/04 01:26:08;;;;;;;;;79.00;67.25;;;;;22.03;100.00;102154.53;5112981;27;45543;-77
2023/09/04 01:28:48;;;;;;;;;64.50;50.75;;;;;22.05;100.00;102149.91;5105833;27;45349;-77
2023/09/04 01:31:25;;;;;;;;;60.00;46.25;;;;;21.93;100.00;102140.00;5108469;27;45359;-77
2023/09/04 01:33:57;;;;;;;;;50.75;39.75;;;;;21.92;100.00;102146.41;5114558;27;45366;-77
2023/09/04 01:36:25;;;;;;;;;50.50;43.00;;;;;21.94;100.00;102150.69;5111368;27;45320;-77
2023/09/04 01:38:51;;;;;;;;;61.50;48.75;;;;;21.91;100.00;102136.59;5115633;27;46980;-77
2023/09/04 01:41:16;;;;;;;;;67.75;52.50;;;;;21.86;100.00;102131.50;5119110;27;45498;-78
2023/09/04 01:43:42;;;;;;;;;74.00;59.25;;;;;21.75;100.00;102115.28;5115794;27;45408;-77
2023/09/04 01:46:07;;;;;;;;;76.00;59.50;;;;;21.88;100.00;102134.94;5111371;27;47746;-77
2023/09/04 01:48:33;;;;;;;;;71.50;54.50;;;;;21.87;100.00;102138.59;5118995;27;48107;-77
2023/09/04 01:50:59;;;;;;;;;74.00;56.50;;;;;21.82;100.00;102138.09;5114878;27;45476;-77
2023/09/04 01:53:24;;;;;;;;;75.25;60.75;;;;;21.81;100.00;102139.94;5103822;27;45339;-77
2023/09/04 01:55:50;;;;;;;;;72.00;57.50;;;;;21.64;100.00;102110.66;5101358;27;45377;-77
2023/09/04 01:58:15;;;;;;;;;73.75;59.25;;;;;21.74;100.00;102129.69;5105631;27;45428;-77
2023/09/04 02:00:40;;;;;;;;;80.00;70.25;;;;;21.73;100.00;102119.88;5107119;27;45388;-77
2023/09/04 02:03:06;;;;;;;;;86.50;80.00;;;;;21.65;100.00;102115.09;5126110;27;45378;-77
2023/09/04 02:05:31;;;;;;;;;103.75;96.00;;;;;21.61;100.00;102100.13;5121998;27;45380;-77
2023/09/04 02:07:56;;;;;;;;;102.00;87.25;;;;;21.67;100.00;102101.50;5101715;27;45250;-78
2023/09/04 02:10:26;;;;;;;;;123.00;104.75;;;;;21.55;100.00;102088.94;5109571;27;48793;-77
2023/09/04 02:12:52;;;;;;;;;113.25;108.00;;;;;21.53;100.00;102085.50;5119541;27;45609;-77
2023/09/04 02:15:17;;;;;;;;;130.25;107.25;;;;;21.47;100.00;102067.94;5121642;27;45376;-77
2023/09/04 02:17:43;;;;;;;;;111.75;96.50;;;;;21.52;100.00;102075.69;5119864;27;60562;-77
2023/09/04 02:20:08;;;;;;;;;106.25;87.25;;;;;21.58;100.00;102088.72;5112081;27;45355;-77
2023/09/04 02:22:34;;;;;;;;;61.25;48.25;;;;;21.54;100.00;102084.50;5117401;27;45349;-77
2023/09/04 02:24:59;;;;;;;;;42.33;35.33;;;;;21.48;100.00;102080.44;5105161;27;49485;-76
2023/09/04 02:27:25;;;;;;;;;45.67;36.33;;;;;21.50;100.00;102089.25;5114559;27;45450;-77
2023/09/04 02:29:50;;;;;;;;;46.00;37.00;;;;;21.45;100.00;102075.28;5113185;27;45291;-77
2023/09/04 02:32:15;;;;;;;;;46.67;36.00;;;;;21.52;100.00;102089.16;5118732;27;48057;-76
2023/09/04 02:34:40;;;;;;;;;35.67;32.67;;;;;21.50;100.00;102091.94;5118024;27;45361;-77
2023/09/04 02:37:06;;;;;;;;;39.33;34.00;;;;;21.44;100.00;102078.94;5115977;27;58710;-77
2023/09/04 02:39:31;;;;;;;;;27.33;24.33;;;;;21.35;100.00;102068.84;5108894;27;45398;-77
2023/09/04 02:41:56;;;;;;;;;15.00;14.67;;;;;21.25;100.00;102051.63;5114209;27;47323;-77
2023/09/04 02:44:22;;;;;;;;;17.33;17.33;;;;;21.35;100.00;102065.28;5109218;27;49215;-77
2023/09/04 02:46:47;;;;;;;;;6.67;6.67;;;;;21.32;100.00;102070.88;5114676;27;46015;-77
2023/09/04 02:49:12;;;;;;;;;18.67;17.00;;;;;21.27;100.00;102066.69;5111552;27;50980;-77
2023/09/04 02:51:37;;;;;;;;;16.33;15.00;;;;;21.23;100.00;102064.34;5113547;27;47520;-77
2023/09/04 02:54:03;;;;;;;;;18.33;18.33;;;;;21.27;100.00;102068.50;5111177;27;45352;-77
2023/09/04 02:56:28;;;;;;;;;17.00;15.67;;;;;21.27;100.00;102076.59;5103313;27;46257;-77
2023/09/04 02:58:54;;;;;;;;;25.33;24.33;;;;;21.16;100.00;102053.16;5109162;27;48260;-77
2023/09/04 03:01:19;;;;;;;;;25.67;22.67;;;;;21.18;100.00;102061.97;5105323;27;45308;-77
2023/09/04 03:03:46;;;;;;;;;25.33;20.67;;;;;21.10;100.00;102058.13;5111212;27;45448;-77
2023/09/04 03:06:11;;;;;;;;;27.00;22.67;;;;;21.15;100.00;102064.88;5118889;27;47615;-77
2023/09/04 03:08:39;;;;;;;;;24.00;22.33;;;;;21.07;100.00;102066.38;5102996;27;45377;-77
2023/09/04 03:11:13;;;;;;;;;26.67;22.00;;;;;21.09;100.00;102075.19;5106236;27;45723;-77
2023/09/04 03:13:38;;;;;;;;;22.67;18.67;;;;;21.08;100.00;102076.16;5109756;27;45505;-77
2023/09/04 03:16:05;;;;;;;;;20.33;19.33;;;;;21.04;100.00;102072.81;5113703;27;46091;-76
2023/09/04 03:18:34;;;;;;;;;23.50;19.00;;;;;20.92;100.00;102059.38;5115229;27;45355;-77
2023/09/04 03:21:04;;;;;;;;;20.67;18.33;;;;;20.94;100.00;102069.06;5112076;27;45326;-77
2023/09/04 03:23:29;;;;;;;;;14.33;14.33;;;;;20.87;100.00;102054.34;5106717;27;45466;-77
2023/09/04 03:25:56;;;;;;;;;14.67;14.67;;;;;20.92;100.00;102062.06;5107642;27;46035;-76
2023/09/04 03:28:21;;;;;;;;;16.67;14.67;;;;;20.78;100.00;102047.75;5109490;27;45391;-77
2023/09/04 03:30:46;;;;;;;;;12.00;12.00;;;;;20.87;100.00;102054.34;5111251;27;45219;-77
2023/09/04 03:33:12;;;;;;;;;14.33;13.67;;;;;20.80;100.00;102047.66;5122045;27;45282;-77
2023/09/04 03:35:37;;;;;;;;;13.00;13.00;;;;;20.84;100.00;102054.56;5115961;27;49702;-77
2023/09/04 03:38:03;;;;;;;;;13.33;12.00;;;;;20.76;100.00;102046.16;5113408;27;45282;-77
2023/09/04 03:40:29;;;;;;;;;18.33;15.33;;;;;20.79;100.00;102054.00;5110352;27;45398;-77
2023/09/04 03:42:55;;;;;;;;;16.00;14.33;;;;;20.68;100.00;102043.16;5119859;27;45982;-78
2023/09/04 03:45:21;;;;;;;;;11.33;11.33;;;;;20.69;100.00;102042.16;5112750;27;46950;-77
2023/09/04 03:47:47;;;;;;;;;14.00;13.00;;;;;20.77;100.00;102058.63;5110780;27;45477;-76
2023/09/04 03:50:13;;;;;;;;;14.00;13.67;;;;;20.67;100.00;102047.66;5115670;27;45389;-76
2023/09/04 03:52:40;;;;;;;;;15.67;15.00;;;;;20.71;100.00;102059.91;5108869;27;45486;-76
2023/09/04 03:55:10;;;;;;;;;14.33;12.67;;;;;20.69;100.00;102067.22;5114638;27;45588;-77
2023/09/04 03:57:36;;;;;;;;;16.67;15.00;;;;;20.61;100.00;102058.84;5116278;27;45448;-77
2023/09/04 04:00:03;;;;;;;;;15.33;14.33;;;;;20.57;100.00;102051.09;5101526;27;45326;-76
2023/09/04 04:02:28;;;;;;;;;14.00;14.00;;;;;20.53;100.00;102045.06;5113463;27;45387;-76
2023/09/04 04:04:54;;;;;;;;;16.67;13.67;;;;;20.57;100.00;102053.78;5121844;27;46056;-76
2023/09/04 04:07:19;;;;;;;;;15.67;14.00;;;;;20.51;100.00;102055.06;5120079;27;45395;-77
2023/09/04 04:09:47;;;;;;;;;17.33;15.33;;;;;20.49;100.00;102056.13;5114960;27;45497;-77
2023/09/04 04:12:14;;;;;;;;;11.33;11.00;;;;;20.42;100.00;102054.84;5101360;27;45228;-76
2023/09/04 04:14:40;;;;;;;;;12.33;10.00;;;;;20.42;100.00;102050.31;5115346;27;45248;-76
2023/09/04 04:17:05;;;;;;;;;13.00;9.33;;;;;20.18;100.00;102012.53;5114910;27;45298;-76
2023/09/04 04:19:30;;;;;;;;;12.67;11.00;;;;;20.30;100.00;102035.03;5101678;27;45230;-77
2023/09/04 04:21:56;;;;;;;;;9.67;9.00;;;;;20.23;100.00;102026.50;5107205;27;50393;-77
2023/09/04 04:24:21;;;;;;;;;8.67;8.67;;;;;20.33;100.00;102047.38;5103166;27;45331;-76
2023/09/04 04:26:46;;;;;;;;;8.00;8.00;;;;;20.37;100.00;102051.59;5114293;27;52054;-76
2023/09/04 04:29:12;;;;;;;;;10.00;10.00;;;;;20.26;100.00;102042.44;5107440;27;45338;-77
2023/09/04 04:31:38;;;;;;;;;10.00;9.33;;;;;20.31;100.00;102060.94;5115332;27;47645;-77
2023/09/04 04:34:03;;;;;;;;;11.00;10.00;;;;;20.22;100.00;102050.78;5110899;27;45416;-76
2023/09/04 04:36:29;;;;;;;;;8.33;8.33;;;;;20.25;100.00;102061.34;5115534;27;45423;-77
2023/09/04 04:38:54;;;;;;;;;12.33;9.33;;;;;20.22;100.00;102059.69;5117615;27;45497;-76
2023/09/04 04:41:20;;;;;;;;;9.00;8.00;;;;;20.21;100.00;102054.44;5112238;27;45591;-77
2023/09/04 04:43:45;;;;;;;;;11.00;10.00;;;;;20.12;100.00;102036.25;5115887;27;45482;-76
2023/09/04 04:46:12;;;;;;;;;7.67;7.67;;;;;20.14;100.00;102043.25;5128019;27;47017;-76
2023/09/04 04:48:38;;;;;;;;;9.67;8.00;;;;;20.08;100.00;102030.22;5114131;27;45377;-76
2023/09/04 04:51:04;;;;;;;;;10.00;8.33;;;;;20.11;100.00;102040.75;5113860;27;45694;-76
2023/09/04 04:53:29;;;;;;;;;10.33;9.67;;;;;20.14;100.00;102045.06;5107826;27;46876;-76
2023/09/04 04:55:55;;;;;;;;;9.00;9.00;;;;;20.10;100.00;102048.91;5116318;27;45419;-76
2023/09/04 04:58:20;;;;;;;;;11.00;10.67;;;;;20.09;100.00;102039.16;5118938;27;45452;-76
2023/09/04 05:00:46;;;;;;;;;9.00;9.00;;;;;20.01;100.00;102045.03;5107550;27;45452;-77
2023/09/04 05:03:12;;;;;;;;;9.33;9.33;;;;;20.05;100.00;102059.13;5120974;27;45511;-77
2023/09/04 05:05:43;;;;;;;;;11.67;10.33;;;;;19.95;100.00;102050.81;5109644;27;45483;-77
2023/09/04 05:08:08;;;;;;;;;9.00;9.00;;;;;19.91;100.00;102037.69;5115771;27;45415;-77
2023/09/04 05:10:34;;;;;;;;;10.67;9.67;;;;;19.95;100.00;102045.44;5109460;27;45299;-77
2023/09/04 05:12:59;;;;;;;;;10.67;10.67;;;;;19.88;100.00;102038.75;5116811;27;54334;-77
2023/09/04 05:15:24;;;;;;;;;11.00;11.00;;;;;19.87;100.00;102057.63;5114014;27;45227;-77
2023/09/04 05:17:50;;;;;;;;;11.00;10.33;;;;;19.77;100.00;102039.44;5106920;27;45479;-77
2023/09/04 05:20:15;;;;;;;;;11.00;10.00;;;;;19.69;100.00;102043.63;5106975;27;50701;-76
2023/09/04 05:22:40;;;;;;;;;13.33;9.33;;;;;19.74;100.00;102054.91;5111165;27;46146;-77
2023/09/04 05:25:07;;;;;;;;;12.33;10.33;;;;;19.75;100.00;102060.19;5111508;27;45260;-77
2023/09/04 05:27:33;;;;;;;;;11.00;10.00;;;;;19.77;100.00;102060.06;5107121;27;46290;-76
2023/09/04 05:29:58;;;;;;;;;10.00;10.00;;;;;19.79;100.00;102063.53;5103659;27;53399;-76
2023/09/04 05:32:23;;;;;;;;;9.33;8.33;;;;;19.75;100.00;102045.91;5115208;27;46975;-76
2023/09/04 05:34:52;;;;;;;;;8.33;8.00;;;;;19.69;100.00;102032.88;5107628;27;45439;-76
2023/09/04 05:37:17;;;;;;;;;11.67;11.67;;;;;19.80;100.00;102046.44;5110460;27;45210;-76
2023/09/04 05:39:43;;;;;;;;;9.67;9.00;;;;;19.68;100.00;102025.78;5101794;27;52371;-77
2023/09/04 05:42:08;;;;;;;;;12.33;11.00;;;;;19.72;100.00;102046.97;5111274;27;46289;-76
2023/09/04 05:44:33;;;;;;;;;9.67;9.00;;;;;19.70;100.00;102032.75;5119335;27;47103;-77
2023/09/04 05:47:00;;;;;;;;;9.00;9.00;;;;;19.76;100.00;102047.63;5115167;27;45305;-77
2023/09/04 05:49:25;;;;;;;;;11.00;10.33;;;;;19.80;100.00;102054.50;5111587;27;45513;-76
2023/09/04 05:51:51;;;;;;;;;9.00;9.00;;;;;19.67;100.00;102038.34;5111253;27;46232;-76
2023/09/04 05:54:16;;;;;;;;;12.00;10.00;;;;;19.79;100.00;102066.22;5110429;27;45276;-76
2023/09/04 05:56:43;;;;;;;;;14.00;9.00;;;;;19.65;100.00;102048.31;5100872;27;45533;-77
2023/09/04 05:59:08;;;;;;;;;10.67;10.33;;;;;19.79;100.00;102066.22;5112574;27;45484;-78
2023/09/04 06:01:34;;;;;;;;;10.00;10.00;;;;;19.76;100.00;102061.06;5108587;27;46278;-78
2023/09/04 06:03:59;;;;;;;;;13.67;12.00;;;;;19.75;100.00;102060.19;5108332;27;52113;-78
2023/09/04 06:06:25;;;;;;;;;11.00;11.00;;;;;19.78;100.00;102059.13;5114307;27;45506;-78
2023/09/04 06:08:50;;;;;;;;;10.33;9.33;;;;;19.87;100.00;102060.31;5112884;27;45520;-78
2023/09/04 06:11:16;;;;;;;;;12.33;11.33;;;;;19.80;100.00;102056.34;5099198;27;45363;-78
2023/09/04 06:13:41;;;;;;;;;12.00;10.00;;;;;19.85;100.00;102073.88;5116705;27;45299;-78
2023/09/04 06:16:06;;;;;;;;;13.67;13.67;;;;;19.87;100.00;102063.88;5116543;27;45418;-78
2023/09/04 06:18:31;;;;;;;;;13.00;12.33;;;;;19.95;100.00;102074.13;5105371;27;45611;-78
2023/09/04 06:20:57;;;;;;;;;13.33;12.00;;;;;19.97;100.00;102070.34;5107651;27;45001;-78
2023/09/04 06:23:23;;;;;;;;;14.00;13.67;;;;;19.99;100.00;102067.59;5107283;27;45328;-77
2023/09/04 06:25:48;;;;;;;;;15.00;13.67;;;;;20.07;100.00;102079.53;5121004;27;45250;-78
2023/09/04 06:28:14;;;;;;;;;13.67;13.67;;;;;19.96;100.00;102052.50;5106702;27;45310;-78
2023/09/04 06:30:39;;;;;;;;;13.67;13.67;;;;;20.18;100.00;102073.44;5106156;27;46577;-78
2023/09/04 06:33:05;;;;;;;;;15.33;13.67;;;;;20.10;100.00;102062.34;5116594;27;45326;-78
2023/09/04 06:35:31;;;;;;;;;12.00;12.00;;;;;20.19;100.00;102064.41;5119018;27;45409;-78
2023/09/04 06:37:57;;;;;;;;;16.33;15.00;;;;;20.30;100.00;102069.09;5115729;27;45527;-78
2023/09/04 06:40:23;;;;;;;;;10.00;10.00;;;;;20.35;100.00;102070.53;5102167;27;45385;-78
2023/09/04 06:42:49;;;;;;;;;14.33;12.00;;;;;20.43;100.00;102072.66;5105382;27;45300;-78
2023/09/04 06:45:14;;;;;;;;;11.00;11.00;;;;;20.48;100.00;102082.16;5113371;27;45425;-78
2023/09/04 06:47:41;;;;;;;;;14.67;12.00;;;;;20.54;100.00;102072.81;5122033;27;45488;-78
2023/09/04 06:50:07;;;;;;;;;13.33;11.00;;;;;20.57;100.00;102076.16;5121049;27;45314;-78
2023/09/04 06:52:33;;;;;;;;;13.67;13.67;;;;;20.62;100.00;102078.50;5114723;27;45331;-78
2023/09/04 06:54:58;;;;;;;;;10.33;9.33;;;;;20.52;100.00;102040.66;5120763;27;45424;-78
2023/09/04 06:57:23;;;;;;;;;10.67;9.33;;;;;20.69;100.00;102059.16;5122807;27;45339;-78
2023/09/04 06:59:49;;;;;;;;;15.67;12.00;;;;;20.68;100.00;102057.44;5118289;27;46266;-77
2023/09/04 07:02:14;;;;;;;;;11.00;9.00;;;;;20.82;100.00;102071.75;5109443;27;45458;-78
2023/09/04 07:04:40;;;;;;;;;9.00;9.00;;;;;20.79;100.00;102056.69;5112880;27;45417;-78
2023/09/04 07:07:05;;;;;;;;;11.33;11.33;;;;;20.93;100.00;102072.72;5108624;27;45277;-78
2023/09/04 07:09:30;;;;;;;;;14.33;10.67;;;;;20.98;100.00;102075.94;5100855;27;45302;-77
2023/09/04 07:11:56;;;;;;;;;7.67;7.67;;;;;20.96;100.00;102059.06;5115622;27;45456;-78
2023/09/04 07:14:21;;;;;;;;;9.33;9.33;;;;;21.07;100.00;102059.16;5120827;27;45291;-77
2023/09/04 07:16:46;;;;;;;;;11.00;9.33;;;;;21.14;99.57;102055.09;5108631;27;45384;-78
2023/09/04 07:19:11;;;;;;;;;10.67;9.33;;;;;21.05;99.09;102034.19;5111573;27;45230;-77
2023/09/04 07:21:37;;;;;;;;;9.67;9.00;;;;;21.22;98.95;102049.16;5117138;27;45605;-78
2023/09/04 07:24:03;;;;;;;;;10.00;10.00;;;;;21.25;99.91;102043.56;5108378;27;45529;-78
2023/09/04 07:26:29;;;;;;;;;14.67;13.67;;;;;21.34;98.36;102053.66;5123821;27;45338;-78
2023/09/04 07:28:55;;;;;;;;;13.33;11.00;;;;;21.30;96.54;102038.72;5113245;27;45521;-78
2023/09/04 07:31:20;;;;;;;;;11.00;9.33;;;;;21.46;97.99;102060.00;5121852;27;45529;-78
2023/09/04 07:33:47;;;;;;;;;14.67;10.33;;;;;21.56;96.39;102064.56;5125582;27;45333;-78
2023/09/04 07:36:13;;;;;;;;;10.33;10.33;;;;;21.50;96.33;102046.19;5116218;27;45605;-78
2023/09/04 07:38:38;;;;;;;;;11.00;9.33;;;;;21.67;96.46;102063.78;5125881;27;45192;-78
2023/09/04 07:41:04;;;;;;;;;10.67;9.00;;;;;21.72;95.82;102062.50;5120125;27;45350;-78
2023/09/04 07:43:31;;;;;;;;;14.00;11.00;;;;;21.78;93.99;102066.56;5112510;27;45418;-79
2023/09/04 07:45:56;;;;;;;;;11.67;11.00;;;;;21.81;93.46;102055.56;5110154;27;45433;-78
2023/09/04 07:48:22;;;;;;;;;12.67;11.00;;;;;21.86;94.86;102047.97;5120643;27;56764;-79
2023/09/04 07:50:48;;;;;;;;;9.33;8.67;;;;;21.96;92.45;102048.19;5110638;27;45717;-78
2023/09/04 07:53:14;;;;;;;;;8.00;8.00;;;;;22.07;94.31;102048.25;5125631;27;45413;-79
2023/09/04 07:55:39;;;;;;;;;9.33;8.67;;;;;22.15;92.18;102051.25;5117990;27;45334;-79
2023/09/04 07:58:05;;;;;;;;;10.67;9.00;;;;;22.11;91.32;102026.34;5125511;27;47843;-78
2023/09/04 08:00:30;;;;;;;;;10.33;8.00;;;;;22.26;91.90;102049.44;5124744;27;45577;-77
2023/09/04 08:02:55;;;;;;;;;11.33;9.67;;;;;22.26;89.77;102037.78;5115064;27;45471;-79
2023/09/04 08:05:21;;;;;;;;;7.67;7.00;;;;;22.27;89.80;102031.44;5136688;27;45321;-79
2023/09/04 08:07:46;;;;;;;;;10.00;8.67;;;;;22.52;90.11;102055.50;5125988;27;45836;-79
2023/09/04 08:10:13;;;;;;;;;9.00;9.00;;;;;22.53;87.78;102045.59;5110238;27;56819;-79
2023/09/04 08:12:38;;;;;;;;;10.33;8.00;;;;;22.69;87.34;102060.50;5135272;27;45409;-78
2023/09/04 08:15:04;;;;;;;;;6.67;6.67;;;;;22.84;88.42;102055.72;5114134;27;45517;-78
2023/09/04 08:17:30;;;;;;;;;7.00;7.00;;;;;22.84;86.33;102034.13;5111626;27;46056;-78
2023/09/04 08:19:55;;;;;;;;;9.00;9.00;;;;;23.03;86.57;102042.50;5119762;27;52109;-78
2023/09/04 08:22:20;;;;;;;;;6.00;6.00;;;;;23.18;84.61;102027.78;5124699;27;45675;-78
2023/09/04 08:24:48;;;;;;;;;11.00;10.00;;;;;23.28;81.46;102047.66;5122643;27;45241;-78
2023/09/04 08:27:14;;;;;;;;;8.00;8.00;;;;;23.25;81.35;102018.22;5105948;27;46113;-78
2023/09/04 08:29:39;;;;;;;;;11.00;9.00;;;;;23.41;83.53;102027.78;5118405;27;45333;-79
2023/09/04 08:32:05;;;;;;;;;11.00;9.67;;;;;23.64;81.80;102049.22;5125407;27;45474;-78
2023/09/04 08:34:30;;;;;;;;;9.33;9.33;;;;;23.72;80.25;102043.19;5107940;27;45472;-79
2023/09/04 08:36:55;;;;;;;;;7.00;7.00;;;;;23.86;77.91;102049.16;5124849;27;45380;-78
2023/09/04 08:39:21;;;;;;;;;6.00;6.00;;;;;23.85;80.67;102019.59;5120862;27;46049;-78
2023/09/04 08:41:47;;;;;;;;;8.00;8.00;;;;;24.02;77.43;102024.41;5126104;27;45435;-78
2023/09/04 08:44:14;;;;;;;;;10.00;8.67;;;;;24.12;78.41;102016.41;5127992;27;45537;-78
2023/09/04 08:46:40;;;;;;;;;9.33;6.33;;;;;24.26;77.62;102030.47;5121193;27;46058;-78
2023/09/04 08:49:05;;;;;;;;;5.67;5.67;;;;;24.40;76.05;102031.16;5123938;27;45395;-78
2023/09/04 08:51:31;;;;;;;;;10.67;8.67;;;;;24.40;75.67;102020.31;5118067;27;45293;-78
2023/09/04 08:53:57;;;;;;;;;8.67;7.67;;;;;24.58;76.27;102016.88;5127810;27;45308;-78
2023/09/04 08:56:24;;;;;;;;;8.00;7.00;;;;;24.73;76.74;102020.13;5127524;27;47308;-78
2023/09/04 08:58:50;;;;;;;;;10.00;9.00;;;;;24.84;77.31;102020.03;5119314;27;45276;-78
2023/09/04 09:01:16;;;;;;;;;10.67;8.00;;;;;24.89;75.16;101996.16;5119860;27;45447;-77
2023/09/04 09:03:42;;;;;;;;;7.33;7.33;;;;;24.90;74.31;101992.47;5114549;27;45376;-78
2023/09/04 09:06:08;;;;;;;;;7.00;7.00;;;;;25.12;75.32;102004.94;5112994;27;46342;-78
2023/09/04 09:08:34;;;;;;;;;8.67;7.67;;;;;25.16;74.75;101996.38;5112620;27;44703;-78
2023/09/04 09:11:01;;;;;;;;;9.67;8.00;;;;;25.22;73.68;101997.69;5120909;27;45455;-78
2023/09/04 09:13:26;;;;;;;;;7.00;7.00;;;;;25.36;72.33;102011.69;5117328;27;45464;-78
2023/09/04 09:15:54;;;;;;;;;8.33;7.33;;;;;25.40;72.40;102007.72;5118526;27;45252;-78
2023/09/04 09:18:42;;;;;;;;;6.67;5.67;;;;;25.49;72.50;101994.34;5131789;27;45352;-79
2023/09/04 09:21:26;;;;;;;;;10.00;8.33;;;;;25.65;72.46;101998.25;5115486;27;45355;-79
2023/09/04 09:24:06;;;;;;;;;7.00;7.00;;;;;25.69;71.40;101988.84;5111687;27;44799;-79
2023/09/04 09:26:31;;;;;;;;;8.67;8.00;;;;;25.81;70.77;102001.28;5112145;27;45397;-79
2023/09/04 09:28:57;;;;;;;;;8.00;6.67;;;;;25.76;70.87;101981.84;5120118;27;45309;-79
2023/09/04 09:31:22;;;;;;;;;7.00;7.00;;;;;25.73;71.76;101967.72;5131832;27;45229;-79
2023/09/04 09:33:48;;;;;;;;;6.33;6.00;;;;;25.99;70.45;101992.41;5120266;27;45415;-79
2023/09/04 09:36:14;;;;;;;;;9.67;9.00;;;;;26.05;71.18;101976.44;5122406;27;45543;-79
2023/09/04 09:38:44;;;;;;;;;7.33;7.00;;;;;26.16;71.85;101962.75;5121324;27;45347;-78
2023/09/04 09:41:12;;;;;;;;;8.67;7.00;;;;;26.30;72.10;101969.59;5124456;27;45418;-78
2023/09/04 09:43:37;;;;;;;;;9.33;7.33;;;;;26.44;68.67;101979.97;5135168;27;45269;-78
2023/09/04 09:46:03;;;;;;;;;8.33;6.00;;;;;26.51;68.23;101981.09;5146405;27;46438;-79
2023/09/04 09:48:30;;;;;;;;;8.00;6.00;;;;;26.57;68.57;101969.66;5127165;27;45412;-79
2023/09/04 09:50:57;;;;;;;;;5.00;5.00;;;;;26.60;69.77;101966.66;5126317;27;45306;-78
2023/09/04 09:53:22;;;;;;;;;8.67;8.00;;;;;26.66;67.22;101962.50;5115913;27;45384;-79
2023/09/04 09:55:48;;;;;;;;;7.33;7.33;;;;;26.61;68.20;101943.06;5131862;27;46550;-79
2023/09/04 09:58:16;;;;;;;;;3.00;3.00;;;;;26.77;68.43;101946.00;5118778;27;45354;-78
2023/09/04 10:00:42;;;;;;;;;8.00;8.00;;;;;26.84;67.43;101941.72;5117271;27;45443;-78
2023/09/04 10:03:07;;;;;;;;;6.33;6.33;;;;;26.88;68.17;101949.44;5133165;27;44922;-78
2023/09/04 10:05:34;;;;;;;;;6.00;6.00;;;;;26.86;67.67;101932.41;5127803;27;45374;-79
2023/09/04 10:08:01;;;;;;;;;7.00;7.00;;;;;26.85;66.42;101917.16;5122458;27;45346;-78
2023/09/04 10:10:28;;;;;;;;;9.33;8.00;;;;;27.00;64.98;101946.50;5116177;27;44731;-79
2023/09/04 10:13:04;;;;;;;;;4.00;4.00;;;;;27.04;67.73;101942.47;5121720;27;44782;-78
2023/09/04 10:15:34;;;;;;;;;6.00;6.00;;;;;27.03;67.46;101919.88;5117174;27;45152;-79
2023/09/04 10:18:25;;;;;;;;;8.67;7.33;;;;;27.10;65.50;101925.56;5121607;27;45392;-78
2023/09/04 10:20:54;;;;;;;;;5.67;5.67;;;;;27.06;64.81;101925.03;5121714;27;45424;-79
2023/09/04 10:23:24;;;;;;;;;6.00;6.00;;;;;27.02;66.33;101923.63;5129186;27;45313;-79
2023/09/04 10:26:11;;;;;;;;;5.33;5.33;;;;;27.11;66.58;101925.44;5138405;27;45793;-79
2023/09/04 10:28:40;;;;;;;;;6.00;6.00;;;;;27.15;65.07;101921.41;5125264;27;45299;-79
2023/09/04 10:31:06;;;;;;;;;7.00;6.33;;;;;27.13;66.74;101903.53;5130629;27;45536;-78
2023/09/04 10:33:31;;;;;;;;;6.00;6.00;;;;;27.16;65.12;101905.97;5120060;27;45547;-79
2023/09/04 10:35:58;;;;;;;;;9.33;8.67;;;;;27.16;64.92;101898.66;5130615;27;45449;-79
2023/09/04 10:38:25;;;;;;;;;6.67;6.00;;;;;27.19;65.19;101892.91;5128532;27;45824;-79
2023/09/04 10:40:52;;;;;;;;;5.00;5.00;;;;;27.23;63.97;101888.88;5126065;27;45527;-79
2023/09/04 10:43:18;;;;;;;;;5.33;5.33;;;;;27.35;65.05;101892.25;5116377;27;45307;-78
2023/09/04 10:46:07;;;;;;;;;8.00;8.00;;;;;27.33;64.70;101888.81;5123850;27;45427;-79
2023/09/04 10:48:47;;;;;;;;;5.67;5.67;;;;;27.27;64.37;101870.41;5126706;27;45475;-78
2023/09/04 10:51:24;;;;;;;;;7.00;7.00;;;;;27.36;64.85;101872.19;5119017;27;45440;-79
2023/09/04 10:53:50;;;;;;;;;4.67;4.67;;;;;27.36;65.86;101864.03;5115212;27;45527;-78
2023/09/04 10:56:15;;;;;;;;;6.67;6.67;;;;;27.31;64.25;101848.22;5124078;27;45887;-79
2023/09/04 10:58:58;;;;;;;;;5.00;5.00;;;;;27.43;65.64;101854.28;5134303;27;48008;-79
2023/09/04 11:01:38;;;;;;;;;7.33;6.33;;;;;27.51;64.97;101864.41;5124581;27;45381;-79
2023/09/04 11:04:05;;;;;;;;;6.00;5.00;;;;;27.53;62.97;101846.91;5114214;27;45250;-79
2023/09/04 11:06:37;;;;;;;;;5.00;5.00;;;;;27.48;63.82;101832.97;5117397;27;45560;-79